PWSweather.com
Personal Weather Stations
Station Observations
WODONGA
Wodonga, WodongaAU 3690

WodongaWodongaAU 3690

Lat: -36.121, Lon: 146.87

Elevation: 541

Station Type: Weather Station

http://www.wodongaweather.net

High Low Average
Temperature 66.7°F19.3°F 48.0°F8.9°F 57.3°F14.1°F
Dew Point 52.5°F11.4°F 43.1°F6.2°F 46.7°F8.2°F
Winds 11.0 mph WNW17.7 mph WNW 1.0 mph 1.6 mph 5.3 mph 8.5 mph
Wind Gusts 15.9 mph25.6 mph 3.1 mph5.0 mph 8.1 mph13.0 mph
Humidity 92% 45% 70%
Pressure 29.94 in1013.90 in 29.78 in1008.50 in -
Precipitation 0.50 in12.70 in - -
Hour Temp Dew Point Humidity Winds Wind Gusts Pressure Precip Precip Rate Daily Precip Total
10:00 AM 60.4°F15.8°C 49.0°F9.4°C 66% 5.9 mph ENE9.5 kmh ENE 8.3 mph13.4 kmh 29.94 in1013.9 mb 0.00 in0.0 mm 0.00 in/hr0.0 mm/hr 0.00 in0.0 mm
10:05 AM 60.8°F16.0°C 49.4°F9.7°C 66% 6.6 mph E10.6 kmh E 8.3 mph13.4 kmh 29.93 in1013.5 mb 0.00 in0.0 mm 0.00 in/hr0.0 mm/hr 0.00 in0.0 mm
10:10 AM 61.2°F16.2°C 49.3°F9.6°C 65% 6.2 mph E10.0 kmh E 8.3 mph13.4 kmh 29.93 in1013.5 mb 0.00 in0.0 mm 0.00 in/hr0.0 mm/hr 0.00 in0.0 mm
10:15 AM 61.3°F16.3°C 49.5°F9.7°C 65% 6.4 mph ENE10.3 kmh ENE 9.8 mph15.8 kmh 29.92 in1013.2 mb 0.00 in0.0 mm 0.00 in/hr0.0 mm/hr 0.00 in0.0 mm
10:20 AM 61.2°F16.2°C 49.7°F9.8°C 66% 5.7 mph ENE9.2 kmh ENE 9.8 mph15.8 kmh 29.92 in1013.2 mb 0.00 in0.0 mm 0.00 in/hr0.0 mm/hr 0.00 in0.0 mm
10:25 AM 61.5°F16.4°C 49.7°F9.8°C 65% 4.7 mph ENE7.6 kmh ENE 6.9 mph11.1 kmh 29.92 in1013.2 mb 0.00 in0.0 mm 0.00 in/hr0.0 mm/hr 0.00 in0.0 mm
10:30 AM 61.3°F16.3°C 49.1°F9.5°C 64% 4.7 mph NE7.6 kmh NE 6.9 mph11.1 kmh 29.92 in1013.2 mb 0.00 in0.0 mm 0.00 in/hr0.0 mm/hr 0.00 in0.0 mm
10:35 AM 61.0°F16.1°C 48.7°F9.3°C 64% 4.5 mph NE7.2 kmh NE 6.9 mph11.1 kmh 29.92 in1013.2 mb 0.00 in0.0 mm 0.00 in/hr0.0 mm/hr 0.00 in0.0 mm
10:40 AM 61.2°F16.2°C 49.3°F9.6°C 65% 4.8 mph E7.7 kmh E 6.9 mph11.1 kmh 29.91 in1012.9 mb 0.00 in0.0 mm 0.00 in/hr0.0 mm/hr 0.00 in0.0 mm
10:45 AM 61.2°F16.2°C 49.3°F9.6°C 65% 4.5 mph E7.2 kmh E 6.9 mph11.1 kmh 29.91 in1012.9 mb 0.00 in0.0 mm 0.00 in/hr0.0 mm/hr 0.00 in0.0 mm
10:50 AM 61.2°F16.2°C 49.3°F9.6°C 65% 4.5 mph E7.2 kmh E 6.0 mph9.7 kmh 29.91 in1012.9 mb 0.00 in0.0 mm 0.00 in/hr0.0 mm/hr 0.00 in0.0 mm
10:55 AM 61.3°F16.3°C 49.5°F9.7°C 65% 3.8 mph E6.1 kmh E 6.0 mph9.7 kmh 29.91 in1012.9 mb 0.00 in0.0 mm 0.00 in/hr0.0 mm/hr 0.00 in0.0 mm
11:00 AM 62.8°F17.1°C 51.3°F10.7°C 66% 3.2 mph ESE5.1 kmh ESE 5.4 mph8.7 kmh 29.91 in1012.9 mb 0.00 in0.0 mm 0.00 in/hr0.0 mm/hr 0.00 in0.0 mm
11:05 AM 64.6°F18.1°C 51.7°F10.9°C 63% 4.0 mph E6.4 kmh E 5.4 mph8.7 kmh 29.90 in1012.5 mb 0.00 in0.0 mm 0.00 in/hr0.0 mm/hr 0.00 in0.0 mm
11:10 AM 65.8°F18.8°C 52.5°F11.4°C 62% 3.7 mph E6.0 kmh E 5.4 mph8.7 kmh 29.89 in1012.2 mb 0.00 in0.0 mm 0.00 in/hr0.0 mm/hr 0.00 in0.0 mm
11:15 AM 66.7°F19.3°C 52.0°F11.1°C 59% 3.4 mph E5.5 kmh E 5.4 mph8.7 kmh 29.89 in1012.2 mb 0.00 in0.0 mm 0.00 in/hr0.0 mm/hr 0.00 in0.0 mm
11:20 AM 65.7°F18.7°C 49.6°F9.8°C 56% 4.3 mph NE6.9 kmh NE 11.4 mph18.3 kmh 29.89 in1012.2 mb 0.00 in0.0 mm 0.00 in/hr0.0 mm/hr 0.00 in0.0 mm
11:25 AM 64.9°F18.3°C 49.4°F9.7°C 57% 5.5 mph NE8.9 kmh NE 11.4 mph18.3 kmh 29.89 in1012.2 mb 0.00 in0.0 mm 0.00 in/hr0.0 mm/hr 0.00 in0.0 mm
11:30 AM 64.6°F18.1°C 49.0°F9.4°C 57% 4.8 mph NE7.7 kmh NE 11.4 mph18.3 kmh 29.89 in1012.2 mb 0.00 in0.0 mm 0.00 in/hr0.0 mm/hr 0.00 in0.0 mm
11:35 AM 63.9°F17.7°C 47.9°F8.8°C 56% 4.4 mph NE7.1 kmh NE 6.9 mph11.1 kmh 29.89 in1012.2 mb 0.00 in0.0 mm 0.00 in/hr0.0 mm/hr 0.00 in0.0 mm
11:40 AM 63.7°F17.6°C 48.2°F9.0°C 57% 5.0 mph N8.0 kmh N 6.9 mph11.1 kmh 29.88 in1011.9 mb 0.00 in0.0 mm 0.00 in/hr0.0 mm/hr 0.00 in0.0 mm
11:45 AM 63.7°F17.6°C 48.2°F9.0°C 57% 4.9 mph NNW7.9 kmh NNW 6.9 mph11.1 kmh 29.88 in1011.9 mb 0.00 in0.0 mm 0.00 in/hr0.0 mm/hr 0.00 in0.0 mm
11:50 AM 63.3°F17.4°C 47.8°F8.8°C 57% 5.2 mph N8.4 kmh N 7.6 mph12.2 kmh 29.87 in1011.5 mb 0.00 in0.0 mm 0.00 in/hr0.0 mm/hr 0.00 in0.0 mm
11:55 AM 63.3°F17.4°C 47.8°F8.8°C 57% 5.1 mph N8.2 kmh N 7.6 mph12.2 kmh 29.87 in1011.5 mb 0.00 in0.0 mm 0.00 in/hr0.0 mm/hr 0.00 in0.0 mm
12:00 PM 63.1°F17.3°C 47.7°F8.7°C 57% 4.9 mph N7.9 kmh N 6.9 mph11.1 kmh 29.86 in1011.2 mb 0.00 in0.0 mm 0.00 in/hr0.0 mm/hr 0.00 in0.0 mm
12:05 PM 63.1°F17.3°C 47.7°F8.7°C 57% 5.2 mph N8.4 kmh N 6.9 mph11.1 kmh 29.86 in1011.2 mb 0.00 in0.0 mm 0.00 in/hr0.0 mm/hr 0.00 in0.0 mm
12:10 PM 63.0°F17.2°C 48.0°F8.9°C 58% 4.4 mph N7.1 kmh N 6.0 mph9.7 kmh 29.86 in1011.2 mb 0.00 in0.0 mm 0.00 in/hr0.0 mm/hr 0.00 in0.0 mm
12:15 PM 63.0°F17.2°C 48.4°F9.1°C 59% 3.0 mph NNE4.8 kmh NNE 6.0 mph9.7 kmh 29.86 in1011.2 mb 0.00 in0.0 mm 0.00 in/hr0.0 mm/hr 0.00 in0.0 mm
12:20 PM 63.1°F17.3°C 48.1°F8.9°C 58% 3.3 mph N5.3 kmh N 11.4 mph18.3 kmh 29.86 in1011.2 mb 0.00 in0.0 mm 0.00 in/hr0.0 mm/hr 0.00 in0.0 mm
12:25 PM 63.0°F17.2°C 46.6°F8.1°C 55% 6.5 mph NNW10.5 kmh NNW 11.4 mph18.3 kmh 29.86 in1011.2 mb 0.00 in0.0 mm 0.00 in/hr0.0 mm/hr 0.00 in0.0 mm
12:30 PM 63.1°F17.3°C 46.7°F8.2°C 55% 7.7 mph NNW12.4 kmh NNW 11.4 mph18.3 kmh 29.85 in1010.8 mb 0.00 in0.0 mm 0.00 in/hr0.0 mm/hr 0.00 in0.0 mm
12:35 PM 63.7°F17.6°C 46.7°F8.2°C 54% 7.4 mph NNW11.9 kmh NNW 10.7 mph17.2 kmh 29.85 in1010.8 mb 0.00 in0.0 mm 0.00 in/hr0.0 mm/hr 0.00 in0.0 mm
12:40 PM 64.0°F17.8°C 46.6°F8.1°C 53% 8.0 mph NNW12.9 kmh NNW 10.7 mph17.2 kmh 29.85 in1010.8 mb 0.00 in0.0 mm 0.00 in/hr0.0 mm/hr 0.00 in0.0 mm
12:45 PM 64.4°F18.0°C 46.9°F8.3°C 53% 7.4 mph NNW11.9 kmh NNW 9.2 mph14.8 kmh 29.84 in1010.5 mb 0.00 in0.0 mm 0.00 in/hr0.0 mm/hr 0.00 in0.0 mm
12:50 PM 65.3°F18.5°C 48.2°F9.0°C 54% 7.1 mph N11.4 kmh N 9.2 mph14.8 kmh 29.84 in1010.5 mb 0.00 in0.0 mm 0.00 in/hr0.0 mm/hr 0.00 in0.0 mm
12:55 PM 66.0°F18.9°C 47.9°F8.8°C 52% 6.6 mph NNW10.6 kmh NNW 9.2 mph14.8 kmh 29.84 in1010.5 mb 0.00 in0.0 mm 0.00 in/hr0.0 mm/hr 0.00 in0.0 mm
01:00 PM 65.8°F18.8°C 47.7°F8.7°C 52% 6.2 mph NW10.0 kmh NW 9.2 mph14.8 kmh 29.83 in1010.2 mb 0.00 in0.0 mm 0.00 in/hr0.0 mm/hr 0.00 in0.0 mm
01:05 PM 65.8°F18.8°C 47.7°F8.7°C 52% 6.1 mph NNW9.8 kmh NNW 9.2 mph14.8 kmh 29.83 in1010.2 mb 0.00 in0.0 mm 0.00 in/hr0.0 mm/hr 0.00 in0.0 mm
01:10 PM 65.8°F18.8°C 47.7°F8.7°C 52% 5.6 mph N9.0 kmh N 8.3 mph13.4 kmh 29.82 in1009.8 mb 0.00 in0.0 mm 0.00 in/hr0.0 mm/hr 0.00 in0.0 mm
01:15 PM 65.8°F18.8°C 47.7°F8.7°C 52% 4.9 mph NNW7.9 kmh NNW 7.6 mph12.2 kmh 29.82 in1009.8 mb 0.00 in0.0 mm 0.00 in/hr0.0 mm/hr 0.00 in0.0 mm
01:20 PM 65.8°F18.8°C 48.3°F9.1°C 53% 5.0 mph NNW8.0 kmh NNW 7.6 mph12.2 kmh 29.82 in1009.8 mb 0.00 in0.0 mm 0.00 in/hr0.0 mm/hr 0.00 in0.0 mm
01:25 PM 65.5°F18.6°C 47.9°F8.8°C 53% 5.1 mph NW8.2 kmh NW 7.6 mph12.2 kmh 29.82 in1009.8 mb 0.00 in0.0 mm 0.00 in/hr0.0 mm/hr 0.00 in0.0 mm
01:30 PM 65.5°F18.6°C 48.4°F9.1°C 54% 4.2 mph NW6.8 kmh NW 6.0 mph9.7 kmh 29.81 in1009.5 mb 0.00 in0.0 mm 0.00 in/hr0.0 mm/hr 0.00 in0.0 mm
01:35 PM 65.5°F18.6°C 48.4°F9.1°C 54% 4.9 mph NW7.9 kmh NW 6.9 mph11.1 kmh 29.81 in1009.5 mb 0.00 in0.0 mm 0.00 in/hr0.0 mm/hr 0.00 in0.0 mm
01:40 PM 65.8°F18.8°C 48.7°F9.3°C 54% 6.5 mph NNW10.5 kmh NNW 8.3 mph13.4 kmh 29.81 in1009.5 mb 0.00 in0.0 mm 0.00 in/hr0.0 mm/hr 0.00 in0.0 mm
01:45 PM 66.0°F18.9°C 48.9°F9.4°C 54% 7.0 mph NNW11.3 kmh NNW 8.3 mph13.4 kmh 29.80 in1009.1 mb 0.00 in0.0 mm 0.00 in/hr0.0 mm/hr 0.00 in0.0 mm
01:50 PM 66.2°F19.0°C 49.6°F9.8°C 55% 6.5 mph NNW10.5 kmh NNW 8.3 mph13.4 kmh 29.80 in1009.1 mb 0.00 in0.0 mm 0.00 in/hr0.0 mm/hr 0.00 in0.0 mm
01:55 PM 66.4°F19.1°C 49.7°F9.8°C 55% 6.3 mph NW10.1 kmh NW 8.3 mph13.4 kmh 29.80 in1009.1 mb 0.00 in0.0 mm 0.00 in/hr0.0 mm/hr 0.00 in0.0 mm
02:00 PM 66.7°F19.3°C 49.6°F9.8°C 54% 6.4 mph NW10.3 kmh NW 9.2 mph14.8 kmh 29.80 in1009.1 mb 0.00 in0.0 mm 0.00 in/hr0.0 mm/hr 0.00 in0.0 mm
02:05 PM 66.6°F19.2°C 48.4°F9.1°C 52% 7.9 mph NW12.7 kmh NW 11.4 mph18.3 kmh 29.80 in1009.1 mb 0.00 in0.0 mm 0.00 in/hr0.0 mm/hr 0.00 in0.0 mm
02:10 PM 66.6°F19.2°C 48.9°F9.4°C 53% 8.8 mph NW14.2 kmh NW 11.4 mph18.3 kmh 29.80 in1009.1 mb 0.00 in0.0 mm 0.00 in/hr0.0 mm/hr 0.00 in0.0 mm
02:15 PM 66.4°F19.1°C 48.2°F9.0°C 52% 9.3 mph NW15.0 kmh NW 12.1 mph19.5 kmh 29.81 in1009.5 mb 0.00 in0.0 mm 0.00 in/hr0.0 mm/hr 0.00 in0.0 mm
02:20 PM 66.0°F18.9°C 46.9°F8.3°C 50% 10.4 mph NW16.7 kmh NW 13.0 mph20.9 kmh 29.80 in1009.1 mb 0.00 in0.0 mm 0.00 in/hr0.0 mm/hr 0.00 in0.0 mm
02:25 PM 66.0°F18.9°C 46.3°F7.9°C 49% 10.4 mph WNW16.7 kmh WNW 13.6 mph21.9 kmh 29.80 in1009.1 mb 0.00 in0.0 mm 0.00 in/hr0.0 mm/hr 0.00 in0.0 mm
02:30 PM 66.0°F18.9°C 45.2°F7.3°C 47% 10.9 mph WNW17.5 kmh WNW 15.9 mph25.6 kmh 29.80 in1009.1 mb 0.00 in0.0 mm 0.00 in/hr0.0 mm/hr 0.00 in0.0 mm
02:35 PM 65.7°F18.7°C 43.8°F6.6°C 45% 11.0 mph WNW17.7 kmh WNW 15.9 mph25.6 kmh 29.80 in1009.1 mb 0.00 in0.0 mm 0.00 in/hr0.0 mm/hr 0.00 in0.0 mm
02:40 PM 65.7°F18.7°C 43.8°F6.6°C 45% 10.0 mph WNW16.1 kmh WNW 15.2 mph24.5 kmh 29.79 in1008.8 mb 0.00 in0.0 mm 0.00 in/hr0.0 mm/hr 0.00 in0.0 mm
02:45 PM 65.3°F18.5°C 43.4°F6.3°C 45% 9.2 mph WNW14.8 kmh WNW 12.1 mph19.5 kmh 29.79 in1008.8 mb 0.00 in0.0 mm 0.00 in/hr0.0 mm/hr 0.00 in0.0 mm
02:50 PM 64.9°F18.3°C 43.7°F6.5°C 46% 9.0 mph WNW14.5 kmh WNW 11.4 mph18.3 kmh 29.79 in1008.8 mb 0.00 in0.0 mm 0.00 in/hr0.0 mm/hr 0.00 in0.0 mm
02:55 PM 64.6°F18.1°C 43.4°F6.3°C 46% 8.9 mph NW14.3 kmh NW 11.4 mph18.3 kmh 29.79 in1008.8 mb 0.00 in0.0 mm 0.00 in/hr0.0 mm/hr 0.00 in0.0 mm
03:00 PM 64.4°F18.0°C 43.7°F6.5°C 47% 8.0 mph NW12.9 kmh NW 11.4 mph18.3 kmh 29.79 in1008.8 mb 0.00 in0.0 mm 0.00 in/hr0.0 mm/hr 0.00 in0.0 mm
03:05 PM 64.2°F17.9°C 43.6°F6.4°C 47% 6.5 mph WNW10.5 kmh WNW 9.8 mph15.8 kmh 29.78 in1008.5 mb 0.00 in0.0 mm 0.00 in/hr0.0 mm/hr 0.00 in0.0 mm
03:10 PM 64.0°F17.8°C 44.0°F6.7°C 48% 6.1 mph NW9.8 kmh NW 7.6 mph12.2 kmh 29.79 in1008.8 mb 0.00 in0.0 mm 0.00 in/hr0.0 mm/hr 0.00 in0.0 mm
03:15 PM 63.9°F17.7°C 44.3°F6.8°C 49% 6.1 mph WNW9.8 kmh WNW 7.6 mph12.2 kmh 29.79 in1008.8 mb 0.00 in0.0 mm 0.00 in/hr0.0 mm/hr 0.00 in0.0 mm
03:20 PM 63.7°F17.6°C 43.6°F6.4°C 48% 6.7 mph WSW10.8 kmh WSW 10.7 mph17.2 kmh 29.78 in1008.5 mb 0.00 in0.0 mm 0.00 in/hr0.0 mm/hr 0.00 in0.0 mm
03:25 PM 63.5°F17.5°C 43.5°F6.4°C 48% 7.0 mph W11.3 kmh W 10.7 mph17.2 kmh 29.78 in1008.5 mb 0.00 in0.0 mm 0.00 in/hr0.0 mm/hr 0.00 in0.0 mm
03:30 PM 63.3°F17.4°C 43.9°F6.6°C 49% 6.3 mph W10.1 kmh W 8.3 mph13.4 kmh 29.78 in1008.5 mb 0.00 in0.0 mm 0.00 in/hr0.0 mm/hr 0.00 in0.0 mm
03:35 PM 63.0°F17.2°C 44.0°F6.7°C 50% 6.1 mph W9.8 kmh W 8.3 mph13.4 kmh 29.78 in1008.5 mb 0.00 in0.0 mm 0.00 in/hr0.0 mm/hr 0.00 in0.0 mm
03:40 PM 62.8°F17.1°C 44.9°F7.2°C 52% 5.9 mph W9.5 kmh W 8.3 mph13.4 kmh 29.78 in1008.5 mb 0.00 in0.0 mm 0.00 in/hr0.0 mm/hr 0.00 in0.0 mm
03:45 PM 62.6°F17.0°C 44.7°F7.1°C 52% 6.5 mph W10.5 kmh W 9.2 mph14.8 kmh 29.78 in1008.5 mb 0.00 in0.0 mm 0.00 in/hr0.0 mm/hr 0.00 in0.0 mm
03:50 PM 62.2°F16.8°C 44.4°F6.9°C 52% 7.5 mph W12.1 kmh W 11.4 mph18.3 kmh 29.78 in1008.5 mb 0.00 in0.0 mm 0.00 in/hr0.0 mm/hr 0.00 in0.0 mm
03:55 PM 62.1°F16.7°C 43.7°F6.5°C 51% 7.4 mph WNW11.9 kmh WNW 11.4 mph18.3 kmh 29.78 in1008.5 mb 0.00 in0.0 mm 0.00 in/hr0.0 mm/hr 0.00 in0.0 mm
04:00 PM 61.9°F16.6°C 43.1°F6.2°C 50% 7.4 mph WNW11.9 kmh WNW 12.1 mph19.5 kmh 29.79 in1008.8 mb 0.00 in0.0 mm 0.00 in/hr0.0 mm/hr 0.00 in0.0 mm
04:05 PM 61.7°F16.5°C 43.4°F6.3°C 51% 7.8 mph W12.6 kmh W 12.1 mph19.5 kmh 29.79 in1008.8 mb 0.00 in0.0 mm 0.00 in/hr0.0 mm/hr 0.00 in0.0 mm
04:10 PM 61.3°F16.3°C 43.6°F6.4°C 52% 8.2 mph W13.2 kmh W 12.1 mph19.5 kmh 29.79 in1008.8 mb 0.00 in0.0 mm 0.00 in/hr0.0 mm/hr 0.00 in0.0 mm
04:15 PM 61.0°F16.1°C 43.2°F6.2°C 52% 9.1 mph WSW14.6 kmh WSW 13.0 mph20.9 kmh 29.79 in1008.8 mb 0.00 in0.0 mm 0.00 in/hr0.0 mm/hr 0.00 in0.0 mm
04:20 PM 60.4°F15.8°C 43.2°F6.2°C 53% 8.3 mph WSW13.4 kmh WSW 13.0 mph20.9 kmh 29.80 in1009.1 mb 0.00 in0.0 mm 0.00 in/hr0.0 mm/hr 0.00 in0.0 mm
04:25 PM 60.3°F15.7°C 43.6°F6.4°C 54% 6.9 mph WSW11.1 kmh WSW 9.8 mph15.8 kmh 29.80 in1009.1 mb 0.00 in0.0 mm 0.00 in/hr0.0 mm/hr 0.00 in0.0 mm
04:30 PM 59.7°F15.4°C 43.5°F6.4°C 55% 7.2 mph WSW11.6 kmh WSW 10.7 mph17.2 kmh 29.80 in1009.1 mb 0.00 in0.0 mm 0.00 in/hr0.0 mm/hr 0.00 in0.0 mm
04:35 PM 59.2°F15.1°C 43.5°F6.4°C 56% 8.2 mph WSW13.2 kmh WSW 11.4 mph18.3 kmh 29.80 in1009.1 mb 0.00 in0.0 mm 0.00 in/hr0.0 mm/hr 0.00 in0.0 mm
04:40 PM 58.5°F14.7°C 43.3°F6.3°C 57% 9.1 mph WSW14.6 kmh WSW 11.4 mph18.3 kmh 29.81 in1009.5 mb 0.00 in0.0 mm 0.00 in/hr0.0 mm/hr 0.00 in0.0 mm
04:45 PM 58.3°F14.6°C 43.6°F6.4°C 58% 9.1 mph W14.6 kmh W 12.1 mph19.5 kmh 29.81 in1009.5 mb 0.00 in0.0 mm 0.00 in/hr0.0 mm/hr 0.00 in0.0 mm
04:50 PM 57.9°F14.4°C 44.1°F6.7°C 60% 8.9 mph WSW14.3 kmh WSW 13.0 mph20.9 kmh 29.81 in1009.5 mb 0.00 in0.0 mm 0.00 in/hr0.0 mm/hr 0.00 in0.0 mm
04:55 PM 57.4°F14.1°C 44.5°F6.9°C 62% 9.6 mph WSW15.4 kmh WSW 13.0 mph20.9 kmh 29.82 in1009.8 mb 0.00 in0.0 mm 0.00 in/hr0.0 mm/hr 0.00 in0.0 mm
05:00 PM 57.2°F14.0°C 45.1°F7.3°C 64% 8.9 mph W14.3 kmh W 12.1 mph19.5 kmh 29.82 in1009.8 mb 0.00 in0.0 mm 0.00 in/hr0.0 mm/hr 0.00 in0.0 mm
05:05 PM 56.5°F13.6°C 45.7°F7.6°C 67% 8.9 mph W14.3 kmh W 15.2 mph24.5 kmh 29.81 in1009.5 mb 0.00 in0.0 mm 0.00 in/hr0.0 mm/hr 0.00 in0.0 mm
05:10 PM 56.1°F13.4°C 45.7°F7.6°C 68% 9.0 mph W14.5 kmh W 15.2 mph24.5 kmh 29.81 in1009.5 mb 0.00 in0.0 mm 0.00 in/hr0.0 mm/hr 0.00 in0.0 mm
05:15 PM 56.1°F13.4°C 46.1°F7.8°C 69% 7.4 mph SW11.9 kmh SW 15.2 mph24.5 kmh 29.81 in1009.5 mb 0.00 in0.0 mm 0.00 in/hr0.0 mm/hr 0.00 in0.0 mm
05:20 PM 55.8°F13.2°C 46.1°F7.8°C 70% 5.7 mph WSW9.2 kmh WSW 11.4 mph18.3 kmh 29.82 in1009.8 mb 0.00 in0.0 mm 0.00 in/hr0.0 mm/hr 0.00 in0.0 mm
05:25 PM 55.4°F13.0°C 46.5°F8.1°C 72% 6.1 mph WSW9.8 kmh WSW 12.1 mph19.5 kmh 29.83 in1010.2 mb 0.00 in0.0 mm 0.00 in/hr0.0 mm/hr 0.00 in0.0 mm
05:30 PM 55.0°F12.8°C 46.6°F8.1°C 73% 7.2 mph W11.6 kmh W 12.1 mph19.5 kmh 29.83 in1010.2 mb 0.00 in0.0 mm 0.00 in/hr0.0 mm/hr 0.00 in0.0 mm
05:35 PM 55.0°F12.8°C 46.6°F8.1°C 73% 5.9 mph WSW9.5 kmh WSW 10.7 mph17.2 kmh 29.83 in1010.2 mb 0.00 in0.0 mm 0.00 in/hr0.0 mm/hr 0.00 in0.0 mm
05:40 PM 54.9°F12.7°C 46.7°F8.2°C 74% 5.6 mph W9.0 kmh W 9.2 mph14.8 kmh 29.83 in1010.2 mb 0.00 in0.0 mm 0.00 in/hr0.0 mm/hr 0.00 in0.0 mm
05:45 PM 54.7°F12.6°C 46.9°F8.3°C 75% 5.3 mph W8.5 kmh W 9.2 mph14.8 kmh 29.83 in1010.2 mb 0.00 in0.0 mm 0.00 in/hr0.0 mm/hr 0.00 in0.0 mm
05:50 PM 54.3°F12.4°C 46.6°F8.1°C 75% 4.6 mph WNW7.4 kmh WNW 8.3 mph13.4 kmh 29.83 in1010.2 mb 0.00 in0.0 mm 0.00 in/hr0.0 mm/hr 0.00 in0.0 mm
05:55 PM 54.3°F12.4°C 46.9°F8.3°C 76% 4.1 mph WNW6.6 kmh WNW 8.3 mph13.4 kmh 29.83 in1010.2 mb 0.00 in0.0 mm 0.00 in/hr0.0 mm/hr 0.00 in0.0 mm
06:00 PM 54.3°F12.4°C 46.9°F8.3°C 76% 3.9 mph W6.3 kmh W 6.0 mph9.7 kmh 29.84 in1010.5 mb 0.00 in0.0 mm 0.00 in/hr0.0 mm/hr 0.00 in0.0 mm
06:05 PM 54.1°F12.3°C 47.1°F8.4°C 77% 4.7 mph W7.6 kmh W 6.0 mph9.7 kmh 29.84 in1010.5 mb 0.00 in0.0 mm 0.00 in/hr0.0 mm/hr 0.00 in0.0 mm
06:10 PM 54.0°F12.2°C 47.3°F8.5°C 78% 5.3 mph WNW8.5 kmh WNW 6.9 mph11.1 kmh 29.84 in1010.5 mb 0.00 in0.0 mm 0.00 in/hr0.0 mm/hr 0.00 in0.0 mm
06:15 PM 53.8°F12.1°C 47.1°F8.4°C 78% 5.8 mph NW9.3 kmh NW 11.4 mph18.3 kmh 29.85 in1010.8 mb 0.00 in0.0 mm 0.00 in/hr0.0 mm/hr 0.00 in0.0 mm
06:20 PM 53.4°F11.9°C 47.1°F8.4°C 79% 5.9 mph NW9.5 kmh NW 11.4 mph18.3 kmh 29.85 in1010.8 mb 0.00 in0.0 mm 0.00 in/hr0.0 mm/hr 0.00 in0.0 mm
06:25 PM 53.4°F11.9°C 47.4°F8.6°C 80% 6.1 mph NW9.8 kmh NW 8.3 mph13.4 kmh 29.85 in1010.8 mb 0.00 in0.0 mm 0.00 in/hr0.0 mm/hr 0.00 in0.0 mm
06:30 PM 53.1°F11.7°C 47.4°F8.6°C 81% 5.9 mph NW9.5 kmh NW 8.3 mph13.4 kmh 29.85 in1010.8 mb 0.00 in0.0 mm 0.00 in/hr0.0 mm/hr 0.00 in0.0 mm
06:35 PM 52.9°F11.6°C 47.5°F8.6°C 82% 5.4 mph WNW8.7 kmh WNW 6.9 mph11.1 kmh 29.85 in1010.8 mb 0.00 in0.0 mm 0.00 in/hr0.0 mm/hr 0.00 in0.0 mm
06:40 PM 52.7°F11.5°C 47.4°F8.6°C 82% 4.9 mph W7.9 kmh W 7.6 mph12.2 kmh 29.85 in1010.8 mb 0.00 in0.0 mm 0.00 in/hr0.0 mm/hr 0.00 in0.0 mm
06:45 PM 52.5°F11.4°C 47.2°F8.4°C 82% 3.9 mph W6.3 kmh W 7.6 mph12.2 kmh 29.85 in1010.8 mb 0.00 in0.0 mm 0.00 in/hr0.0 mm/hr 0.00 in0.0 mm
06:50 PM 52.5°F11.4°C 47.5°F8.6°C 83% 3.9 mph WSW6.3 kmh WSW 6.0 mph9.7 kmh 29.86 in1011.2 mb 0.00 in0.0 mm 0.00 in/hr0.0 mm/hr 0.00 in0.0 mm
06:55 PM 52.3°F11.3°C 47.3°F8.5°C 83% 3.9 mph WSW6.3 kmh WSW 6.0 mph9.7 kmh 29.86 in1011.2 mb 0.00 in0.0 mm 0.00 in/hr0.0 mm/hr 0.00 in0.0 mm
07:00 PM 52.3°F11.3°C 47.3°F8.5°C 83% 3.5 mph SW5.6 kmh SW 6.0 mph9.7 kmh 29.86 in1011.2 mb 0.00 in0.0 mm 0.00 in/hr0.0 mm/hr 0.00 in0.0 mm
07:05 PM 52.2°F11.2°C 47.2°F8.4°C 83% 4.0 mph WSW6.4 kmh WSW 6.0 mph9.7 kmh 29.86 in1011.2 mb 0.00 in0.0 mm 0.00 in/hr0.0 mm/hr 0.00 in0.0 mm
07:10 PM 52.0°F11.1°C 47.0°F8.3°C 83% 4.6 mph W7.4 kmh W 7.6 mph12.2 kmh 29.86 in1011.2 mb 0.01 in0.3 mm 0.12 in/hr3.0 mm/hr 0.01 in0.3 mm
07:15 PM 52.2°F11.2°C 47.5°F8.6°C 84% 3.8 mph WSW6.1 kmh WSW 7.6 mph12.2 kmh 29.86 in1011.2 mb 0.01 in0.3 mm 0.00 in/hr0.0 mm/hr 0.01 in0.3 mm
07:20 PM 51.8°F11.0°C 47.1°F8.4°C 84% 2.8 mph WSW4.5 kmh WSW 4.5 mph7.2 kmh 29.86 in1011.2 mb 0.01 in0.3 mm 0.00 in/hr0.0 mm/hr 0.01 in0.3 mm
07:25 PM 51.8°F11.0°C 47.1°F8.4°C 84% 2.7 mph WSW4.3 kmh WSW 4.5 mph7.2 kmh 29.86 in1011.2 mb 0.01 in0.3 mm 0.00 in/hr0.0 mm/hr 0.01 in0.3 mm
07:30 PM 51.6°F10.9°C 46.9°F8.3°C 84% 2.4 mph WSW3.9 kmh WSW 5.4 mph8.7 kmh 29.85 in1010.8 mb 0.01 in0.3 mm 0.00 in/hr0.0 mm/hr 0.01 in0.3 mm
07:35 PM 51.6°F10.9°C 46.9°F8.3°C 84% 2.7 mph WSW4.3 kmh WSW 5.4 mph8.7 kmh 29.86 in1011.2 mb 0.01 in0.3 mm 0.00 in/hr0.0 mm/hr 0.01 in0.3 mm
07:40 PM 51.3°F10.7°C 46.9°F8.3°C 85% 3.4 mph W5.5 kmh W 5.4 mph8.7 kmh 29.86 in1011.2 mb 0.01 in0.3 mm 0.00 in/hr0.0 mm/hr 0.01 in0.3 mm
07:45 PM 51.1°F10.6°C 46.7°F8.2°C 85% 3.9 mph W6.3 kmh W 5.4 mph8.7 kmh 29.86 in1011.2 mb 0.01 in0.3 mm 0.00 in/hr0.0 mm/hr 0.01 in0.3 mm
07:50 PM 51.1°F10.6°C 46.7°F8.2°C 85% 4.3 mph W6.9 kmh W 6.0 mph9.7 kmh 29.86 in1011.2 mb 0.01 in0.3 mm 0.00 in/hr0.0 mm/hr 0.01 in0.3 mm
07:55 PM 51.1°F10.6°C 47.0°F8.3°C 86% 4.0 mph W6.4 kmh W 6.0 mph9.7 kmh 29.86 in1011.2 mb 0.01 in0.3 mm 0.00 in/hr0.0 mm/hr 0.01 in0.3 mm
08:00 PM 50.9°F10.5°C 46.9°F8.3°C 86% 3.1 mph WNW5.0 kmh WNW 5.4 mph8.7 kmh 29.87 in1011.5 mb 0.01 in0.3 mm 0.00 in/hr0.0 mm/hr 0.01 in0.3 mm
08:05 PM 50.7°F10.4°C 46.7°F8.2°C 86% 3.3 mph NW5.3 kmh NW 5.4 mph8.7 kmh 29.87 in1011.5 mb 0.01 in0.3 mm 0.00 in/hr0.0 mm/hr 0.01 in0.3 mm
08:10 PM 50.9°F10.5°C 46.9°F8.3°C 86% 3.5 mph NW5.6 kmh NW 5.4 mph8.7 kmh 29.87 in1011.5 mb 0.00 in0.0 mm 0.00 in/hr0.0 mm/hr 0.01 in0.3 mm
08:15 PM 50.7°F10.4°C 46.7°F8.2°C 86% 3.4 mph WNW5.5 kmh WNW 5.4 mph8.7 kmh 29.87 in1011.5 mb 0.01 in0.3 mm 0.12 in/hr3.0 mm/hr 0.02 in0.5 mm
08:20 PM 50.5°F10.3°C 46.8°F8.2°C 87% 3.4 mph WNW5.5 kmh WNW 4.5 mph7.2 kmh 29.87 in1011.5 mb 0.01 in0.3 mm 0.00 in/hr0.0 mm/hr 0.02 in0.5 mm
08:25 PM 50.5°F10.3°C 46.8°F8.2°C 87% 4.2 mph NW6.8 kmh NW 6.9 mph11.1 kmh 29.87 in1011.5 mb 0.01 in0.3 mm 0.00 in/hr0.0 mm/hr 0.02 in0.5 mm
08:30 PM 50.4°F10.2°C 46.9°F8.3°C 88% 4.6 mph WNW7.4 kmh WNW 6.9 mph11.1 kmh 29.87 in1011.5 mb 0.01 in0.3 mm 0.00 in/hr0.0 mm/hr 0.02 in0.5 mm
08:35 PM 50.2°F10.1°C 46.8°F8.2°C 88% 3.9 mph WNW6.3 kmh WNW 5.4 mph8.7 kmh 29.87 in1011.5 mb 0.02 in0.5 mm 0.12 in/hr3.0 mm/hr 0.04 in1.0 mm
08:40 PM 50.4°F10.2°C 46.9°F8.3°C 88% 2.6 mph NW4.2 kmh NW 5.4 mph8.7 kmh 29.87 in1011.5 mb 0.02 in0.5 mm 0.00 in/hr0.0 mm/hr 0.04 in1.0 mm
08:45 PM 50.0°F10.0°C 46.9°F8.3°C 89% 1.9 mph NW3.1 kmh NW 3.1 mph5.0 kmh 29.87 in1011.5 mb 0.02 in0.5 mm 0.00 in/hr0.0 mm/hr 0.04 in1.0 mm
08:50 PM 50.0°F10.0°C 46.9°F8.3°C 89% 2.6 mph NW4.2 kmh NW 3.1 mph5.0 kmh 29.87 in1011.5 mb 0.02 in0.5 mm 0.00 in/hr0.0 mm/hr 0.04 in1.0 mm
08:55 PM 50.0°F10.0°C 47.2°F8.4°C 90% 2.8 mph NW4.5 kmh NW 4.5 mph7.2 kmh 29.88 in1011.9 mb 0.02 in0.5 mm 0.00 in/hr0.0 mm/hr 0.04 in1.0 mm
09:00 PM 50.0°F10.0°C 47.2°F8.4°C 90% 3.6 mph WNW5.8 kmh WNW 4.5 mph7.2 kmh 29.88 in1011.9 mb 0.02 in0.5 mm 0.00 in/hr0.0 mm/hr 0.04 in1.0 mm
09:05 PM 49.8°F9.9°C 47.0°F8.3°C 90% 4.6 mph WNW7.4 kmh WNW 5.4 mph8.7 kmh 29.89 in1012.2 mb 0.04 in1.0 mm 0.24 in/hr6.1 mm/hr 0.05 in1.3 mm
09:10 PM 49.6°F9.8°C 46.8°F8.2°C 90% 4.5 mph NW7.2 kmh NW 5.4 mph8.7 kmh 29.89 in1012.2 mb 0.04 in1.0 mm 0.00 in/hr0.0 mm/hr 0.05 in1.3 mm
09:15 PM 49.6°F9.8°C 46.8°F8.2°C 90% 4.0 mph NW6.4 kmh NW 5.4 mph8.7 kmh 29.88 in1011.9 mb 0.02 in0.5 mm 0.00 in/hr0.0 mm/hr 0.05 in1.3 mm
09:20 PM 49.6°F9.8°C 46.8°F8.2°C 90% 3.9 mph NW6.3 kmh NW 5.4 mph8.7 kmh 29.88 in1011.9 mb 0.02 in0.5 mm 0.00 in/hr0.0 mm/hr 0.05 in1.3 mm
09:25 PM 49.5°F9.7°C 46.7°F8.2°C 90% 3.7 mph NW6.0 kmh NW 5.4 mph8.7 kmh 29.88 in1011.9 mb 0.02 in0.5 mm 0.00 in/hr0.0 mm/hr 0.05 in1.3 mm
09:30 PM 49.5°F9.7°C 46.4°F8.0°C 89% 3.7 mph WNW6.0 kmh WNW 5.4 mph8.7 kmh 29.87 in1011.5 mb 0.02 in0.5 mm 0.00 in/hr0.0 mm/hr 0.05 in1.3 mm
09:35 PM 49.3°F9.6°C 46.2°F7.9°C 89% 4.0 mph WNW6.4 kmh WNW 5.4 mph8.7 kmh 29.87 in1011.5 mb 0.01 in0.3 mm 0.00 in/hr0.0 mm/hr 0.05 in1.3 mm
09:40 PM 49.1°F9.5°C 46.0°F7.8°C 89% 4.4 mph W7.1 kmh W 6.9 mph11.1 kmh 29.88 in1011.9 mb 0.01 in0.3 mm 0.00 in/hr0.0 mm/hr 0.05 in1.3 mm
09:45 PM 49.1°F9.5°C 45.7°F7.6°C 88% 4.0 mph W6.4 kmh W 9.2 mph14.8 kmh 29.87 in1011.5 mb 0.01 in0.3 mm 0.00 in/hr0.0 mm/hr 0.05 in1.3 mm
09:50 PM 49.1°F9.5°C 45.7°F7.6°C 88% 2.9 mph WSW4.7 kmh WSW 9.2 mph14.8 kmh 29.87 in1011.5 mb 0.01 in0.3 mm 0.00 in/hr0.0 mm/hr 0.05 in1.3 mm
09:55 PM 49.1°F9.5°C 45.7°F7.6°C 88% 2.9 mph W4.7 kmh W 3.8 mph6.1 kmh 29.87 in1011.5 mb 0.01 in0.3 mm 0.00 in/hr0.0 mm/hr 0.05 in1.3 mm
10:00 PM 49.1°F9.5°C 45.7°F7.6°C 88% 2.7 mph W4.3 kmh W 3.8 mph6.1 kmh 29.86 in1011.2 mb 0.01 in0.3 mm 0.00 in/hr0.0 mm/hr 0.05 in1.3 mm
10:05 PM 49.3°F9.6°C 46.2°F7.9°C 89% 1.6 mph SW2.6 kmh SW 3.8 mph6.1 kmh 29.86 in1011.2 mb 0.00 in0.0 mm 0.00 in/hr0.0 mm/hr 0.05 in1.3 mm
10:10 PM 49.1°F9.5°C 45.7°F7.6°C 88% 1.5 mph WSW2.4 kmh WSW 3.1 mph5.0 kmh 29.86 in1011.2 mb 0.00 in0.0 mm 0.00 in/hr0.0 mm/hr 0.05 in1.3 mm
10:15 PM 48.9°F9.4°C 45.5°F7.5°C 88% 2.7 mph WSW4.3 kmh WSW 6.0 mph9.7 kmh 29.86 in1011.2 mb 0.00 in0.0 mm 0.00 in/hr0.0 mm/hr 0.05 in1.3 mm
10:20 PM 48.7°F9.3°C 45.3°F7.4°C 88% 3.9 mph WSW6.3 kmh WSW 6.0 mph9.7 kmh 29.86 in1011.2 mb 0.00 in0.0 mm 0.00 in/hr0.0 mm/hr 0.05 in1.3 mm
10:25 PM 48.6°F9.2°C 45.5°F7.5°C 89% 3.7 mph WSW6.0 kmh WSW 5.4 mph8.7 kmh 29.86 in1011.2 mb 0.00 in0.0 mm 0.00 in/hr0.0 mm/hr 0.05 in1.3 mm
10:30 PM 48.7°F9.3°C 45.6°F7.6°C 89% 3.1 mph W5.0 kmh W 5.4 mph8.7 kmh 29.87 in1011.5 mb 0.00 in0.0 mm 0.00 in/hr0.0 mm/hr 0.05 in1.3 mm
10:35 PM 48.6°F9.2°C 45.5°F7.5°C 89% 3.3 mph W5.3 kmh W 5.4 mph8.7 kmh 29.87 in1011.5 mb 0.00 in0.0 mm 0.00 in/hr0.0 mm/hr 0.05 in1.3 mm
10:40 PM 48.6°F9.2°C 45.5°F7.5°C 89% 2.8 mph W4.5 kmh W 5.4 mph8.7 kmh 29.87 in1011.5 mb 0.00 in0.0 mm 0.00 in/hr0.0 mm/hr 0.05 in1.3 mm
10:45 PM 48.7°F9.3°C 45.9°F7.7°C 90% 1.9 mph WSW3.1 kmh WSW 3.8 mph6.1 kmh 29.86 in1011.2 mb 0.00 in0.0 mm 0.00 in/hr0.0 mm/hr 0.05 in1.3 mm
10:50 PM 48.9°F9.4°C 46.1°F7.8°C 90% 1.0 mph WSW1.6 kmh WSW 3.1 mph5.0 kmh 29.87 in1011.5 mb 0.00 in0.0 mm 0.00 in/hr0.0 mm/hr 0.05 in1.3 mm
10:55 PM 48.9°F9.4°C 45.8°F7.7°C 89% 1.5 mph WSW2.4 kmh WSW 3.8 mph6.1 kmh 29.87 in1011.5 mb 0.00 in0.0 mm 0.00 in/hr0.0 mm/hr 0.05 in1.3 mm
11:00 PM 48.9°F9.4°C 45.8°F7.7°C 89% 3.8 mph W6.1 kmh W 6.0 mph9.7 kmh 29.87 in1011.5 mb 0.00 in0.0 mm 0.00 in/hr0.0 mm/hr 0.05 in1.3 mm
11:05 PM 48.7°F9.3°C 45.6°F7.6°C 89% 4.5 mph WNW7.2 kmh WNW 6.0 mph9.7 kmh 29.87 in1011.5 mb 0.00 in0.0 mm 0.00 in/hr0.0 mm/hr 0.05 in1.3 mm
11:10 PM 48.7°F9.3°C 45.9°F7.7°C 90% 3.7 mph WNW6.0 kmh WNW 5.4 mph8.7 kmh 29.87 in1011.5 mb 0.00 in0.0 mm 0.00 in/hr0.0 mm/hr 0.05 in1.3 mm
11:15 PM 48.6°F9.2°C 46.1°F7.8°C 91% 3.6 mph NW5.8 kmh NW 4.5 mph7.2 kmh 29.87 in1011.5 mb 0.00 in0.0 mm 0.00 in/hr0.0 mm/hr 0.05 in1.3 mm
11:20 PM 48.7°F9.3°C 46.2°F7.9°C 91% 3.9 mph NW6.3 kmh NW 4.5 mph7.2 kmh 29.87 in1011.5 mb 0.00 in0.0 mm 0.00 in/hr0.0 mm/hr 0.05 in1.3 mm
11:25 PM 48.7°F9.3°C 46.2°F7.9°C 91% 4.1 mph NW6.6 kmh NW 6.0 mph9.7 kmh 29.86 in1011.2 mb 0.00 in0.0 mm 0.00 in/hr0.0 mm/hr 0.05 in1.3 mm
11:30 PM 48.7°F9.3°C 45.9°F7.7°C 90% 4.4 mph NW7.1 kmh NW 6.0 mph9.7 kmh 29.87 in1011.5 mb 0.00 in0.0 mm 0.00 in/hr0.0 mm/hr 0.05 in1.3 mm
11:35 PM 48.6°F9.2°C 45.8°F7.7°C 90% 4.9 mph WNW7.9 kmh WNW 6.0 mph9.7 kmh 29.87 in1011.5 mb 0.00 in0.0 mm 0.00 in/hr0.0 mm/hr 0.05 in1.3 mm
11:40 PM 48.4°F9.1°C 45.9°F7.7°C 91% 5.0 mph NW8.0 kmh NW 6.0 mph9.7 kmh 29.87 in1011.5 mb 0.00 in0.0 mm 0.00 in/hr0.0 mm/hr 0.05 in1.3 mm
11:45 PM 48.4°F9.1°C 45.9°F7.7°C 91% 4.6 mph NW7.4 kmh NW 6.9 mph11.1 kmh 29.87 in1011.5 mb 0.00 in0.0 mm 0.00 in/hr0.0 mm/hr 0.05 in1.3 mm
11:50 PM 48.2°F9.0°C 46.0°F7.8°C 92% 4.6 mph NW7.4 kmh NW 6.9 mph11.1 kmh 29.86 in1011.2 mb 0.00 in0.0 mm 0.00 in/hr0.0 mm/hr 0.05 in1.3 mm
11:55 PM 48.0°F8.9°C 45.8°F7.7°C 92% 4.4 mph NW7.1 kmh NW 6.0 mph9.7 kmh 29.86 in1011.2 mb 0.00 in0.0 mm 0.00 in/hr0.0 mm/hr 0.05 in1.3 mm